Time;durP1;ratioP1;P1;durP2;ratioP2;P2;SDS_P1;SDS_P2;PMS_P1;PMS_P2;Temp;Humidity;BMP_temperature;BMP_pressure;BME280_temperature;BME280_humidity;BME280_pressure;Samples;Min_cycle;Max_cycle;Signal;HPM_P1;HPM_P2
2023/01/17 00:01:43;;;;;;;27.35;21.52;;;6.60;99.90;;;;;;4994245;28;20065;-75
2023/01/17 00:10:06;;;;;;;25.85;23.00;;;6.40;99.90;;;;;;4996821;28;20076;-75
2023/01/17 00:12:32;;;;;;;24.75;21.48;;;6.40;99.90;;;;;;4997498;28;20084;-74
2023/01/17 00:14:59;;;;;;;26.33;22.25;;;6.40;99.90;;;;;;4998186;28;20029;-75
2023/01/17 00:17:27;;;;;;;24.70;21.60;;;6.40;99.90;;;;;;4997739;28;20109;-75
2023/01/17 01:35:18;;;;;;;70.68;40.60;;;6.50;99.90;;;;;;5000539;28;20065;-75
2023/01/17 01:37:44;;;;;;;71.82;40.35;;;6.50;99.90;;;;;;5000643;28;20022;-75
2023/01/17 01:40:11;;;;;;;70.30;39.17;;;6.50;99.90;;;;;;5001472;28;20128;-75
2023/01/17 01:42:46;;;;;;;66.18;39.08;;;6.60;99.90;;;;;;5002361;28;20109;-75
2023/01/17 01:45:17;;;;;;;69.05;38.58;;;6.50;99.90;;;;;;5002803;28;20030;-75
2023/01/17 01:47:44;;;;;;;73.03;39.85;;;6.60;99.90;;;;;;5000868;28;20030;-75
2023/01/17 01:50:12;;;;;;;72.43;42.00;;;6.60;99.90;;;;;;5001022;28;20030;-75
2023/01/17 01:52:43;;;;;;;77.15;40.58;;;6.60;99.90;;;;;;5003393;28;20075;-75
2023/01/17 01:55:19;;;;;;;71.25;40.58;;;6.50;99.90;;;;;;5000178;28;20474;-75
2023/01/17 01:57:49;;;;;;;75.80;41.50;;;6.50;99.90;;;;;;4999335;28;20124;-75
2023/01/17 02:00:23;;;;;;;73.80;42.03;;;6.50;99.90;;;;;;5003306;28;20018;-75
2023/01/17 02:02:52;;;;;;;72.05;40.58;;;6.50;99.90;;;;;;5003417;28;20100;-75
2023/01/17 02:05:21;;;;;;;69.03;40.10;;;6.50;99.90;;;;;;5001455;28;20046;-74
2023/01/17 02:08:06;;;;;;;68.85;39.58;;;6.50;99.90;;;;;;5000426;28;20467;-75
2023/01/17 02:10:37;;;;;;;71.57;41.80;;;6.50;99.90;;;;;;4999301;28;20034;-75
2023/01/17 02:13:05;;;;;;;76.32;43.38;;;6.40;99.90;;;;;;5002367;28;20038;-75
2023/01/17 02:15:38;;;;;;;92.75;48.63;;;6.40;99.90;;;;;;5001016;28;20030;-75
2023/01/17 02:18:04;;;;;;;94.53;48.80;;;6.40;99.90;;;;;;5000719;28;20022;-75
2023/01/17 02:20:55;;;;;;;90.90;49.15;;;6.40;99.90;;;;;;5000194;28;20030;-74
2023/01/17 02:23:43;;;;;;;87.35;48.33;;;6.50;99.90;;;;;;5008941;28;20075;-75
2023/01/17 02:26:27;;;;;;;86.28;48.92;;;6.50;99.90;;;;;;5001646;28;20389;-75
2023/01/17 02:29:13;;;;;;;93.10;48.33;;;6.50;99.90;;;;;;5000203;28;20485;-75
2023/01/17 02:31:53;;;;;;;89.85;47.88;;;6.50;99.90;;;;;;5000399;28;20282;-75
2023/01/17 02:34:21;;;;;;;80.70;45.90;;;6.50;99.90;;;;;;4997559;28;20038;-75
2023/01/17 02:37:00;;;;;;;84.38;46.30;;;6.50;99.90;;;;;;5003360;28;20030;-75
2023/01/17 02:39:50;;;;;;;82.78;46.60;;;6.50;99.90;;;;;;5001437;28;20037;-75
2023/01/17 02:42:18;;;;;;;86.15;48.10;;;6.50;99.90;;;;;;5001842;28;20481;-75
2023/01/17 02:44:44;;;;;;;82.85;46.25;;;6.50;99.90;;;;;;4999459;28;20030;-75
2023/01/17 02:47:25;;;;;;;82.30;46.92;;;6.50;99.90;;;;;;5000408;28;20072;-75
2023/01/17 02:49:55;;;;;;;88.28;47.60;;;6.50;99.90;;;;;;4999096;28;20117;-75
2023/01/17 02:52:48;;;;;;;88.38;49.35;;;6.50;99.90;;;;;;5002620;28;20049;-75
2023/01/17 02:55:46;;;;;;;83.90;46.22;;;6.50;99.90;;;;;;5087144;28;20489;-75
2023/01/17 02:58:18;;;;;;;81.88;46.28;;;6.50;99.90;;;;;;5005719;28;20098;-75
2023/01/17 03:00:56;;;;;;;81.38;44.78;;;6.50;99.90;;;;;;5002406;28;20029;-75
2023/01/17 03:03:27;;;;;;;82.53;46.90;;;6.50;99.90;;;;;;4998840;28;20508;-75
2023/01/17 03:05:59;;;;;;;78.78;45.20;;;6.50;99.90;;;;;;4999699;28;20430;-76
2023/01/17 03:08:26;;;;;;;79.47;47.88;;;6.50;99.90;;;;;;5001049;28;20025;-75
2023/01/17 03:10:52;;;;;;;86.80;46.35;;;6.50;99.90;;;;;;5000381;28;20105;-75
2023/01/17 03:13:18;;;;;;;87.32;48.30;;;6.50;99.90;;;;;;5000427;28;20120;-75
2023/01/17 03:15:44;;;;;;;80.70;46.88;;;6.40;99.90;;;;;;5001951;28;20053;-75
2023/01/17 03:18:13;;;;;;;85.80;47.72;;;6.30;99.90;;;;;;4999653;28;20030;-75
2023/01/17 03:20:39;;;;;;;76.70;45.13;;;6.20;99.90;;;;;;4998937;28;20079;-75
2023/01/17 03:23:08;;;;;;;74.50;42.55;;;6.20;99.90;;;;;;5000659;28;20026;-75
2023/01/17 03:25:37;;;;;;;75.55;43.42;;;6.10;99.90;;;;;;4997049;28;20050;-75
2023/01/17 03:28:02;;;;;;;72.30;42.60;;;6.10;99.90;;;;;;5000361;28;20034;-75
2023/01/17 03:30:28;;;;;;;72.68;42.63;;;6.10;99.90;;;;;;5002254;28;20029;-75
2023/01/17 03:32:54;;;;;;;71.65;43.08;;;6.00;99.90;;;;;;5002595;28;20041;-75
2023/01/17 03:35:19;;;;;;;68.55;40.35;;;6.00;99.90;;;;;;4999975;28;20036;-75
2023/01/17 03:37:45;;;;;;;75.93;43.40;;;6.00;99.90;;;;;;5001760;28;20022;-75
2023/01/17 03:40:11;;;;;;;79.30;44.95;;;6.00;99.90;;;;;;4999420;28;20050;-74
2023/01/17 03:42:36;;;;;;;84.10;47.13;;;6.00;99.90;;;;;;4999276;28;20434;-74
2023/01/17 03:45:02;;;;;;;75.30;41.25;;;6.00;99.90;;;;;;5001410;28;20034;-75
2023/01/17 03:47:28;;;;;;;70.38;38.90;;;5.90;99.90;;;;;;4998837;28;20354;-75
2023/01/17 03:49:54;;;;;;;66.57;38.45;;;5.80;99.90;;;;;;4999497;28;20124;-75
2023/01/17 03:52:19;;;;;;;69.35;39.38;;;5.80;99.90;;;;;;4999766;28;20037;-75
2023/01/17 03:54:45;;;;;;;64.63;38.65;;;5.70;99.90;;;;;;4999318;28;20031;-75
2023/01/17 03:57:11;;;;;;;60.70;36.90;;;5.70;99.90;;;;;;5001052;28;20053;-75
2023/01/17 03:59:36;;;;;;;58.03;36.35;;;5.70;99.90;;;;;;4996033;28;20405;-75
2023/01/17 04:02:02;;;;;;;63.40;36.90;;;5.70;99.90;;;;;;5000091;28;20031;-75
2023/01/17 04:04:28;;;;;;;61.55;37.55;;;5.70;99.90;;;;;;5001054;28;20050;-75
2023/01/17 04:06:53;;;;;;;58.00;36.35;;;5.70;99.90;;;;;;4999765;28;20038;-75
2023/01/17 04:09:19;;;;;;;55.92;33.80;;;5.70;99.90;;;;;;4997948;28;20037;-75
2023/01/17 04:11:49;;;;;;;60.22;35.45;;;5.60;99.90;;;;;;4996652;28;20554;-75
2023/01/17 04:14:16;;;;;;;61.35;35.85;;;5.50;99.90;;;;;;5000173;28;20394;-75
2023/01/17 04:16:42;;;;;;;61.72;36.22;;;5.50;99.90;;;;;;5000891;28;20044;-75
2023/01/17 04:19:11;;;;;;;56.38;36.05;;;5.60;99.90;;;;;;5001193;28;21030;-75
2023/01/17 04:21:37;;;;;;;53.35;34.40;;;5.60;99.90;;;;;;4999866;28;20022;-75
2023/01/17 04:24:03;;;;;;;57.40;36.58;;;5.60;99.90;;;;;;5002090;28;20030;-75
2023/01/17 04:26:28;;;;;;;51.42;33.38;;;5.70;99.90;;;;;;4996147;28;20026;-75
2023/01/17 04:28:54;;;;;;;55.42;34.70;;;5.70;99.90;;;;;;4999272;28;20037;-75
2023/01/17 04:31:19;;;;;;;51.90;32.85;;;5.60;99.90;;;;;;4998642;28;20068;-75
2023/01/17 04:33:45;;;;;;;53.72;35.53;;;5.60;99.90;;;;;;5000748;28;20404;-75
2023/01/17 04:36:11;;;;;;;54.90;34.85;;;5.50;99.90;;;;;;4997431;28;20113;-75
2023/01/17 04:38:36;;;;;;;58.42;34.85;;;5.60;99.90;;;;;;4999438;28;20117;-75
2023/01/17 04:41:02;;;;;;;50.72;34.03;;;5.60;99.90;;;;;;5000789;28;20037;-75
2023/01/17 04:43:28;;;;;;;53.15;34.70;;;5.60;99.90;;;;;;4998231;28;20026;-75
2023/01/17 04:45:57;;;;;;;49.13;32.00;;;5.70;99.90;;;;;;4997897;28;20371;-75
2023/01/17 04:48:23;;;;;;;54.88;34.22;;;5.70;99.90;;;;;;4998151;28;20022;-75
2023/01/17 04:50:49;;;;;;;44.33;29.95;;;5.70;99.90;;;;;;4997973;28;20505;-75
2023/01/17 04:53:15;;;;;;;45.30;30.17;;;5.60;99.90;;;;;;4999575;28;20488;-74
2023/01/17 04:55:45;;;;;;;52.22;31.38;;;5.60;99.90;;;;;;4996986;28;20034;-74
2023/01/17 04:58:11;;;;;;;43.72;30.33;;;5.60;99.90;;;;;;4998026;28;20026;-75
2023/01/17 05:00:36;;;;;;;38.38;26.92;;;5.50;99.90;;;;;;4998138;28;20044;-74
2023/01/17 05:03:02;;;;;;;37.20;26.08;;;5.50;99.90;;;;;;5080928;28;20023;-75
2023/01/17 05:05:28;;;;;;;38.60;26.67;;;5.40;99.90;;;;;;4999109;28;20053;-74
2023/01/17 05:07:55;;;;;;;36.38;25.73;;;5.30;99.90;;;;;;4997337;28;20026;-74
2023/01/17 05:10:21;;;;;;;35.88;25.42;;;5.30;99.90;;;;;;4997452;28;20501;-75
2023/01/17 05:12:57;;;;;;;38.70;25.67;;;5.30;99.90;;;;;;5000198;28;20025;-75
2023/01/17 05:15:24;;;;;;;33.80;24.02;;;5.30;99.90;;;;;;4995369;28;20121;-74
2023/01/17 05:17:51;;;;;;;32.53;23.52;;;5.30;99.90;;;;;;4998904;28;20029;-75
2023/01/17 05:20:18;;;;;;;32.40;23.38;;;5.20;99.90;;;;;;4998575;28;20022;-74
2023/01/17 05:22:46;;;;;;;31.13;22.15;;;5.20;99.90;;;;;;4997555;28;20474;-75
2023/01/17 05:25:12;;;;;;;32.70;22.92;;;5.20;99.90;;;;;;4997328;28;20033;-75
2023/01/17 05:27:37;;;;;;;32.35;22.88;;;5.20;99.90;;;;;;4998308;28;20034;-75
2023/01/17 05:30:04;;;;;;;30.02;21.88;;;5.20;99.90;;;;;;4999380;28;20034;-75
2023/01/17 05:32:29;;;;;;;30.10;22.15;;;5.20;99.90;;;;;;4996875;28;20081;-75
2023/01/17 05:34:55;;;;;;;29.50;20.98;;;5.30;99.90;;;;;;5000743;28;20055;-75
2023/01/17 05:37:21;;;;;;;30.45;20.92;;;5.20;99.90;;;;;;4998902;28;20531;-75
2023/01/17 05:39:46;;;;;;;28.30;20.77;;;5.20;99.90;;;;;;4999981;28;20026;-75
2023/01/17 05:42:12;;;;;;;26.35;19.45;;;5.20;99.90;;;;;;5004716;28;20029;-74
2023/01/17 05:44:38;;;;;;;29.63;20.98;;;5.20;99.90;;;;;;5005266;28;20022;-75
2023/01/17 05:47:03;;;;;;;31.20;19.48;;;5.20;99.90;;;;;;5006003;28;20049;-75
2023/01/17 05:49:29;;;;;;;27.65;19.98;;;5.10;99.90;;;;;;5005207;28;20030;-75
2023/01/17 05:51:56;;;;;;;26.70;19.95;;;5.20;99.90;;;;;;5003150;28;20031;-75
2023/01/17 05:54:25;;;;;;;26.90;19.88;;;5.20;99.90;;;;;;5003948;28;20071;-75
2023/01/17 05:56:50;;;;;;;28.45;19.88;;;5.20;99.90;;;;;;5003274;28;20034;-75
2023/01/17 05:59:16;;;;;;;28.17;19.55;;;5.20;99.90;;;;;;5006262;28;20078;-75
2023/01/17 06:01:42;;;;;;;28.65;20.17;;;5.30;99.90;;;;;;5002949;28;20422;-75
2023/01/17 06:04:08;;;;;;;31.60;21.55;;;5.30;99.90;;;;;;5005294;28;20042;-75
2023/01/17 06:06:33;;;;;;;30.40;19.50;;;5.30;99.90;;;;;;5001679;28;20033;-75
2023/01/17 06:08:59;;;;;;;30.90;19.20;;;5.30;99.90;;;;;;4999338;28;20041;-75
2023/01/17 06:11:25;;;;;;;27.85;19.80;;;5.30;99.90;;;;;;4999381;28;20030;-75
2023/01/17 06:13:50;;;;;;;26.38;19.27;;;5.30;99.90;;;;;;4996963;28;20401;-75
2023/01/17 06:16:16;;;;;;;33.63;20.17;;;5.20;99.90;;;;;;4998807;28;20154;-75
2023/01/17 06:18:42;;;;;;;31.85;20.48;;;5.20;99.90;;;;;;4998842;28;20111;-75
2023/01/17 06:21:07;;;;;;;31.52;22.25;;;5.20;99.90;;;;;;4994507;28;20019;-75
2023/01/17 06:23:33;;;;;;;35.92;23.40;;;5.30;99.90;;;;;;5000799;28;20030;-75
2023/01/17 06:26:02;;;;;;;36.80;24.67;;;5.30;99.90;;;;;;4999978;28;20026;-75
2023/01/17 06:28:28;;;;;;;34.80;23.20;;;5.30;99.90;;;;;;4998663;28;20100;-75
2023/01/17 06:30:53;;;;;;;36.33;23.77;;;5.30;99.90;;;;;;5003700;28;20108;-75
2023/01/17 06:33:19;;;;;;;37.13;24.70;;;5.30;99.90;;;;;;5001120;28;20018;-75
2023/01/17 06:35:49;;;;;;;35.67;23.98;;;5.40;99.90;;;;;;5003731;28;20456;-75
2023/01/17 06:38:15;;;;;;;43.10;24.83;;;5.40;99.90;;;;;;5000298;28;20033;-75
2023/01/17 06:40:41;;;;;;;35.72;23.77;;;5.40;99.90;;;;;;4999870;28;20108;-75
2023/01/17 06:43:06;;;;;;;34.83;24.00;;;5.40;99.90;;;;;;5002503;28;20435;-75
2023/01/17 06:45:33;;;;;;;39.25;24.67;;;5.30;99.90;;;;;;4998738;28;20026;-75
2023/01/17 06:48:02;;;;;;;41.75;26.50;;;5.30;99.90;;;;;;5001412;28;20105;-75
2023/01/17 06:50:28;;;;;;;42.63;26.17;;;5.20;99.90;;;;;;5001324;28;20030;-75
2023/01/17 06:52:59;;;;;;;41.63;25.27;;;5.20;99.90;;;;;;5008113;28;20026;-75
2023/01/17 06:55:29;;;;;;;40.08;25.65;;;5.10;99.90;;;;;;5010236;28;20481;-75
2023/01/17 06:57:58;;;;;;;34.42;23.85;;;5.20;99.90;;;;;;4991503;28;20087;-75
2023/01/17 07:00:24;;;;;;;35.25;23.35;;;5.20;99.90;;;;;;4991443;28;20023;-75
2023/01/17 07:02:51;;;;;;;36.80;22.63;;;5.30;99.90;;;;;;4996265;28;20049;-75
2023/01/17 07:05:17;;;;;;;30.73;21.00;;;5.20;99.90;;;;;;5010723;28;20110;-75
2023/01/17 07:07:44;;;;;;;27.20;19.52;;;5.20;99.90;;;;;;5012575;28;20760;-75
2023/01/17 07:10:12;;;;;;;26.67;19.17;;;5.20;99.90;;;;;;5000056;28;20062;-74
2023/01/17 07:12:38;;;;;;;25.65;16.83;;;5.20;99.90;;;;;;4992938;28;20041;-75
2023/01/17 07:15:05;;;;;;;23.35;16.45;;;5.20;99.90;;;;;;4991327;28;20026;-74
2023/01/17 07:17:30;;;;;;;23.13;16.67;;;5.30;99.90;;;;;;5091760;28;20030;-75
2023/01/17 07:19:56;;;;;;;28.30;18.52;;;5.30;99.90;;;;;;5007502;28;20033;-75
2023/01/17 07:22:22;;;;;;;39.50;26.08;;;5.40;99.90;;;;;;4991183;28;20031;-75
2023/01/17 07:24:47;;;;;;;47.25;28.77;;;5.30;99.90;;;;;;5083741;28;20030;-75
2023/01/17 07:27:13;;;;;;;61.00;37.05;;;5.30;99.90;;;;;;4993759;28;20105;-75
2023/01/17 07:29:39;;;;;;;63.85;38.67;;;5.20;99.90;;;;;;5012058;28;20022;-74
2023/01/17 07:32:07;;;;;;;65.60;38.45;;;5.20;99.90;;;;;;4996153;28;20033;-75
2023/01/17 07:34:33;;;;;;;65.55;39.42;;;5.10;99.90;;;;;;5075692;28;20371;-75
2023/01/17 07:36:59;;;;;;;68.40;38.30;;;5.20;99.90;;;;;;5011765;28;20028;-75
2023/01/17 07:39:25;;;;;;;66.07;40.35;;;5.30;99.90;;;;;;5005766;28;20470;-75
2023/01/17 07:41:51;;;;;;;67.85;41.55;;;5.30;99.90;;;;;;4992135;28;20060;-74
2023/01/17 07:44:17;;;;;;;72.57;42.53;;;5.30;99.90;;;;;;5076216;28;20026;-75
2023/01/17 07:46:42;;;;;;;71.90;41.60;;;5.30;99.90;;;;;;4991019;28;20482;-74
2023/01/17 07:49:08;;;;;;;70.88;41.53;;;5.40;99.90;;;;;;4992161;28;20030;-75
2023/01/17 07:51:33;;;;;;;73.95;41.45;;;5.40;99.90;;;;;;5011095;28;20450;-74
2023/01/17 07:53:59;;;;;;;80.50;46.63;;;5.40;99.90;;;;;;5011172;28;20030;-74
2023/01/17 07:56:25;;;;;;;75.93;44.78;;;5.40;99.90;;;;;;5011620;28;20481;-74
2023/01/17 07:58:50;;;;;;;78.18;45.60;;;5.50;99.90;;;;;;5011533;28;20061;-74
2023/01/17 08:01:16;;;;;;;79.45;46.30;;;5.50;99.90;;;;;;5011418;28;20060;-74
2023/01/17 08:03:42;;;;;;;76.13;46.42;;;5.50;99.90;;;;;;5008987;28;20042;-80
2023/01/17 08:06:13;;;;;;;73.50;41.92;;;5.50;99.90;;;;;;5002260;28;20037;-80
2023/01/17 08:08:41;;;;;;;71.07;40.75;;;5.40;99.90;;;;;;5011407;28;20030;-81
2023/01/17 08:11:07;;;;;;;68.18;41.25;;;5.30;99.90;;;;;;5011100;28;20075;-80
2023/01/17 08:13:33;;;;;;;67.57;40.08;;;5.30;99.90;;;;;;5010637;28;20558;-80
2023/01/17 08:16:01;;;;;;;64.85;40.63;;;5.20;99.90;;;;;;4999254;28;20112;-80
2023/01/17 08:18:30;;;;;;;69.38;40.80;;;5.10;99.90;;;;;;5001109;28;20499;-80
2023/01/17 08:20:56;;;;;;;68.03;38.30;;;5.10;99.90;;;;;;5000214;28;20622;-80
2023/01/17 08:23:22;;;;;;;62.60;38.65;;;5.10;99.90;;;;;;5004096;28;20105;-80
2023/01/17 08:25:47;;;;;;;65.85;40.03;;;5.10;99.90;;;;;;5001948;28;20017;-80
2023/01/17 08:28:14;;;;;;;56.47;34.58;;;5.10;99.90;;;;;;5005815;28;20484;-80
2023/01/17 08:30:40;;;;;;;54.95;33.22;;;5.00;99.90;;;;;;5005173;28;20442;-80
2023/01/17 08:33:06;;;;;;;50.67;31.52;;;5.10;99.90;;;;;;5000980;28;20110;-80
2023/01/17 08:35:34;;;;;;;48.78;31.40;;;5.00;99.90;;;;;;5002360;28;20049;-80
2023/01/17 08:38:03;;;;;;;62.97;35.85;;;5.10;99.90;;;;;;4997033;28;20109;-80
2023/01/17 08:40:31;;;;;;;54.22;33.20;;;5.10;99.90;;;;;;5002845;28;20093;-80
2023/01/17 08:42:58;;;;;;;51.35;31.35;;;5.20;99.90;;;;;;4993890;28;20462;-80
2023/01/17 08:45:25;;;;;;;46.15;28.33;;;5.30;99.90;;;;;;5004915;28;20020;-80
2023/01/17 08:47:51;;;;;;;48.85;29.13;;;5.30;99.90;;;;;;5010381;28;20029;-80
2023/01/17 08:50:20;;;;;;;42.33;27.70;;;5.40;99.90;;;;;;5010520;28;20061;-80
2023/01/17 08:52:47;;;;;;;39.50;25.92;;;5.40;99.90;;;;;;5009057;28;20397;-80
2023/01/17 08:55:13;;;;;;;41.40;25.30;;;5.40;99.90;;;;;;5009133;28;20037;-79
2023/01/17 08:57:39;;;;;;;38.00;25.45;;;5.50;99.90;;;;;;5006498;28;20026;-79
2023/01/17 09:00:06;;;;;;;36.88;23.85;;;5.60;99.90;;;;;;4989665;28;20022;-79
2023/01/17 09:02:32;;;;;;;47.63;29.00;;;5.70;99.90;;;;;;4995081;28;20018;-79
2023/01/17 09:04:57;;;;;;;50.50;31.92;;;5.70;99.90;;;;;;4996240;28;20047;-79
2023/01/17 09:07:25;;;;;;;46.60;29.67;;;5.70;99.90;;;;;;4992242;28;20030;-78
2023/01/17 09:09:51;;;;;;;43.13;28.15;;;5.80;99.90;;;;;;4986382;28;20030;-77
2023/01/17 09:12:19;;;;;;;56.60;34.63;;;5.80;99.90;;;;;;4998642;28;20532;-78
2023/01/17 09:14:45;;;;;;;70.60;41.65;;;5.70;99.90;;;;;;5005811;28;20029;-77
2023/01/17 09:17:10;;;;;;;73.30;42.53;;;5.70;99.90;;;;;;4991789;28;20034;-78
2023/01/17 09:19:40;;;;;;;76.50;44.03;;;5.70;99.90;;;;;;4987951;28;20037;-77
2023/01/17 09:22:06;;;;;;;77.10;44.70;;;5.70;99.90;;;;;;4986661;28;20029;-75
2023/01/17 09:24:32;;;;;;;81.70;45.88;;;5.70;99.90;;;;;;5087912;28;20079;-74
2023/01/17 09:26:58;;;;;;;75.05;44.28;;;5.80;99.90;;;;;;5007437;28;20034;-74
2023/01/17 09:29:24;;;;;;;72.90;44.47;;;5.80;99.90;;;;;;5005934;28;20629;-74
2023/01/17 09:31:50;;;;;;;73.95;44.70;;;5.80;99.90;;;;;;5007777;28;20021;-75
2023/01/17 09:34:17;;;;;;;75.78;44.15;;;5.80;99.90;;;;;;5005572;28;20036;-75
2023/01/17 09:36:43;;;;;;;81.53;46.55;;;5.80;99.90;;;;;;4998540;28;20026;-75
2023/01/17 09:39:10;;;;;;;83.40;48.25;;;5.80;99.90;;;;;;4993905;28;20037;-74
2023/01/17 09:41:54;;;;;;;79.82;46.60;;;5.90;99.90;;;;;;4997721;28;20033;-75
2023/01/17 09:44:28;;;;;;;84.07;47.53;;;5.90;99.90;;;;;;4988425;28;20026;-78
2023/01/17 09:47:22;;;;;;;78.85;46.03;;;5.90;99.90;;;;;;4987000;28;20087;-76
2023/01/17 09:49:48;;;;;;;74.50;44.42;;;5.90;99.90;;;;;;4990755;28;20379;-77
2023/01/17 09:52:20;;;;;;;69.32;42.83;;;5.90;99.90;;;;;;5004478;28;20040;-77
2023/01/17 09:54:48;;;;;;;65.55;40.80;;;6.00;99.90;;;;;;5004006;28;20117;-76
2023/01/17 09:57:44;;;;;;;63.10;37.80;;;6.00;99.90;;;;;;4999471;28;20417;-77
2023/01/17 10:00:28;;;;;;;61.97;37.08;;;6.00;99.90;;;;;;5003569;28;20022;-79
2023/01/17 10:03:24;;;;;;;56.08;33.65;;;6.00;99.90;;;;;;5010170;28;20053;-78
2023/01/17 10:06:21;;;;;;;64.97;39.42;;;6.00;99.90;;;;;;5009712;28;20041;-78
2023/01/17 10:09:19;;;;;;;62.10;37.70;;;6.00;99.90;;;;;;5010597;28;20488;-76
2023/01/17 10:11:45;;;;;;;56.92;34.22;;;6.00;99.90;;;;;;5007076;28;20029;-78
2023/01/17 10:14:35;;;;;;;57.20;35.35;;;6.00;99.90;;;;;;4992697;28;20026;-77
2023/01/17 10:17:22;;;;;;;50.20;32.65;;;6.00;99.90;;;;;;4998178;28;20076;-77
2023/01/17 10:20:11;;;;;;;54.03;33.65;;;6.00;99.90;;;;;;4990855;28;20110;-77
2023/01/17 10:42:51;;;;;;;23.27;15.25;;;5.80;99.90;;;;;;6222289;22;20330;-75
2023/01/17 10:45:19;;;;;;;19.35;14.23;;;6.10;99.90;;;;;;6220481;23;20009;-74
2023/01/17 10:47:52;;;;;;;24.83;14.82;;;6.00;99.90;;;;;;6191367;23;20017;-74
2023/01/17 10:50:21;;;;;;;22.55;14.77;;;6.00;99.90;;;;;;6219817;23;20087;-75
2023/01/17 10:53:02;;;;;;;18.05;13.20;;;6.00;99.90;;;;;;6193517;23;20004;-75
2023/01/17 10:55:37;;;;;;;19.25;13.23;;;5.90;99.90;;;;;;6220118;23;19996;-76
2023/01/17 10:58:07;;;;;;;18.73;13.13;;;6.00;99.90;;;;;;6220145;23;20032;-75
2023/01/17 11:00:38;;;;;;;18.50;13.07;;;6.00;99.90;;;;;;6220238;23;20031;-75
2023/01/17 11:03:05;;;;;;;17.98;12.50;;;6.00;99.90;;;;;;6219191;23;20082;-75
2023/01/17 11:05:32;;;;;;;18.20;12.55;;;6.00;99.90;;;;;;6192772;23;20011;-74
2023/01/17 11:08:10;;;;;;;17.65;13.30;;;6.00;99.90;;;;;;6219509;23;20004;-74
2023/01/17 11:10:52;;;;;;;19.90;13.77;;;6.00;99.90;;;;;;6220181;23;20004;-76
2023/01/17 11:13:21;;;;;;;;;;;6.00;99.90;;;;;;6220547;23;20007;-74
2023/01/17 11:15:51;;;;;;;49.38;31.23;;;6.00;99.90;;;;;;6219434;23;19904;-75
2023/01/17 11:18:20;;;;;;;45.42;27.15;;;6.00;99.90;;;;;;6219298;23;20067;-76
2023/01/17 11:20:48;;;;;;;32.08;21.15;;;6.00;99.90;;;;;;6193360;23;20039;-76
2023/01/17 11:23:28;;;;;;;24.48;15.90;;;6.00;99.90;;;;;;6192601;23;20576;-75
2023/01/17 11:26:01;;;;;;;20.85;14.85;;;6.00;99.90;;;;;;6219886;23;20083;-75
2023/01/17 11:28:32;;;;;;;24.27;16.40;;;6.00;99.90;;;;;;6219325;23;20030;-75
2023/01/17 11:31:02;;;;;;;27.55;17.73;;;6.00;99.90;;;;;;6219563;23;20039;-75
2023/01/17 11:33:44;;;;;;;28.80;19.00;;;6.10;99.90;;;;;;6219418;23;20001;-75
2023/01/17 11:36:26;;;;;;;32.92;20.90;;;6.10;99.90;;;;;;6219080;23;20031;-75
2023/01/17 11:39:04;;;;;;;31.40;20.25;;;6.10;99.90;;;;;;6219462;23;20072;-75
2023/01/17 11:41:35;;;;;;;26.90;18.55;;;6.10;99.90;;;;;;6218125;23;20099;-75
2023/01/17 11:44:18;;;;;;;21.98;14.75;;;6.10;99.90;;;;;;6185943;23;20500;-75
2023/01/17 11:46:44;;;;;;;29.13;19.45;;;6.20;99.90;;;;;;6211489;23;20004;-75
2023/01/17 11:49:23;;;;;;;28.25;18.85;;;6.10;99.90;;;;;;6186216;23;20019;-76
2023/01/17 11:51:49;;;;;;;30.50;20.50;;;6.10;99.90;;;;;;6212912;23;20004;-75
2023/01/17 11:54:37;;;;;;;41.65;26.27;;;6.10;99.90;;;;;;6185093;23;20012;-74
2023/01/17 11:57:04;;;;;;;38.40;23.30;;;6.10;99.90;;;;;;6211614;23;19997;-75
2023/01/17 11:59:41;;;;;;;34.13;21.38;;;6.20;99.90;;;;;;6211664;23;20084;-75
2023/01/17 12:02:30;;;;;;;30.85;20.65;;;6.20;99.90;;;;;;6184727;23;20004;-75
2023/01/17 12:05:26;;;;;;;29.85;18.65;;;6.20;99.90;;;;;;6212281;23;20088;-75
2023/01/17 12:08:07;;;;;;;31.10;19.33;;;6.20;99.90;;;;;;6185200;23;20082;-75
2023/01/17 12:10:38;;;;;;;41.15;26.63;;;6.20;99.90;;;;;;6211066;23;20444;-75
2023/01/17 12:16:28;;;;;;;53.40;30.27;;;6.20;99.90;;;;;;6211608;23;20657;-75
2023/01/17 12:19:17;;;;;;;52.75;29.92;;;6.00;99.90;;;;;;6211129;23;20004;-74
2023/01/17 12:21:43;;;;;;;39.35;26.20;;;6.10;99.90;;;;;;6185351;23;20047;-75
2023/01/17 12:24:12;;;;;;;35.58;23.23;;;6.10;99.90;;;;;;6185478;23;20013;-74
2023/01/17 12:26:53;;;;;;;25.58;17.70;;;6.10;99.90;;;;;;6185957;23;20015;-75
2023/01/17 12:29:33;;;;;;;17.85;14.27;;;6.20;99.90;;;;;;6212828;23;20078;-75
2023/01/17 12:32:34;;;;;;;21.08;14.23;;;6.10;99.90;;;;;;6211850;23;20005;-75
2023/01/17 12:35:08;;;;;;;8.50;7.70;;;6.20;99.90;;;;;;6185217;23;20012;-75
2023/01/17 12:37:35;;;;;;;8.63;7.28;;;6.20;99.90;;;;;;6211648;23;20000;-75
2023/01/17 12:40:27;;;;;;;10.32;7.75;;;6.20;99.90;;;;;;6212460;23;20086;-75
2023/01/17 12:43:11;;;;;;;9.03;6.27;;;6.30;99.90;;;;;;6185277;23;20040;-75
2023/01/17 12:45:43;;;;;;;11.45;9.75;;;6.30;99.90;;;;;;6211903;23;20028;-75
2023/01/17 12:48:12;;;;;;;20.50;14.65;;;6.30;99.90;;;;;;6210453;23;20001;-73
2023/01/17 12:51:16;;;;;;;17.10;11.85;;;6.20;99.90;;;;;;6211696;23;20016;-75
2023/01/17 12:54:24;;;;;;;12.23;9.85;;;6.30;99.90;;;;;;6061766;23;20007;-74
2023/01/17 12:57:10;;;;;;;8.93;7.65;;;6.30;99.90;;;;;;6200294;23;20083;-74
2023/01/17 12:59:47;;;;;;;9.00;8.10;;;6.30;99.90;;;;;;6185159;23;20005;-75
2023/01/17 13:02:56;;;;;;;8.98;8.00;;;6.40;99.90;;;;;;6211759;23;20007;-74
2023/01/17 13:05:44;;;;;;;12.10;10.32;;;6.30;99.90;;;;;;6206390;23;20087;-73
2023/01/17 13:08:46;;;;;;;12.07;9.93;;;6.40;99.90;;;;;;6211364;23;19997;-74
2023/01/17 13:11:16;;;;;;;14.48;11.20;;;6.50;99.90;;;;;;6170020;23;20385;-75
2023/01/17 13:13:42;;;;;;;12.60;9.85;;;6.50;99.90;;;;;;6211250;23;19996;-74
2023/01/17 13:16:23;;;;;;;14.88;10.68;;;6.50;99.90;;;;;;6211547;23;19993;-75
2023/01/17 13:18:50;;;;;;;15.95;11.15;;;6.50;99.90;;;;;;6211309;23;20439;-74
2023/01/17 13:21:25;;;;;;;23.58;15.90;;;6.50;99.90;;;;;;6187758;23;20424;-75
2023/01/17 13:24:02;;;;;;;16.25;13.70;;;6.50;99.90;;;;;;6215496;23;20001;-75
2023/01/17 13:26:56;;;;;;;16.25;13.02;;;6.50;99.90;;;;;;6215834;23;20036;-77
2023/01/17 13:29:44;;;;;;;15.95;11.75;;;6.50;99.90;;;;;;6216037;23;20092;-77
2023/01/17 13:32:43;;;;;;;13.30;10.57;;;6.60;99.90;;;;;;6215631;23;20759;-77
2023/01/17 13:35:42;;;;;;;10.57;8.55;;;6.70;99.90;;;;;;6188815;23;20333;-77
2023/01/17 13:38:22;;;;;;;11.82;8.85;;;6.70;99.90;;;;;;6215672;23;20004;-77
2023/01/17 13:40:51;;;;;;;10.18;8.70;;;6.70;99.90;;;;;;6215423;23;20008;-77
2023/01/17 13:43:39;;;;;;;10.73;9.27;;;6.60;99.90;;;;;;6215761;23;20001;-77
2023/01/17 13:46:05;;;;;;;13.05;9.43;;;6.60;99.90;;;;;;6215860;23;20425;-77
2023/01/17 13:48:33;;;;;;;9.23;8.30;;;6.60;99.90;;;;;;6215501;23;20119;-77
2023/01/17 13:51:03;;;;;;;9.57;8.68;;;6.60;99.90;;;;;;6215512;23;20015;-77
2023/01/17 13:53:35;;;;;;;10.55;8.98;;;6.60;99.90;;;;;;6189092;23;20001;-77
2023/01/17 13:56:23;;;;;;;12.82;11.43;;;6.60;99.90;;;;;;6215626;23;20008;-77
2023/01/17 13:58:50;;;;;;;15.70;13.23;;;6.60;99.90;;;;;;6215835;23;19989;-76
2023/01/17 14:01:41;;;;;;;15.80;10.73;;;6.60;99.90;;;;;;6214250;23;20340;-77
2023/01/17 14:04:11;;;;;;;12.82;10.35;;;6.70;99.90;;;;;;6175426;23;20004;-77
2023/01/17 14:06:47;;;;;;;10.05;9.00;;;6.70;99.90;;;;;;6215502;23;20001;-77
2023/01/17 14:09:40;;;;;;;12.85;9.35;;;6.60;99.90;;;;;;6188959;23;20098;-77
2023/01/17 14:12:30;;;;;;;10.60;9.50;;;6.60;99.90;;;;;;6184110;23;20031;-76
2023/01/17 14:14:59;;;;;;;13.15;10.25;;;6.50;99.90;;;;;;6211445;23;20415;-76
2023/01/17 14:17:32;;;;;;;9.82;8.90;;;6.50;99.90;;;;;;6184925;23;20010;-77
2023/01/17 14:20:23;;;;;;;12.75;10.05;;;6.50;99.90;;;;;;6212448;23;20000;-76
2023/01/17 14:22:59;;;;;;;12.57;10.02;;;6.30;99.90;;;;;;6211183;23;20003;-77
2023/01/17 14:25:29;;;;;;;13.07;10.75;;;6.40;99.90;;;;;;6214024;23;20029;-76
2023/01/17 14:28:01;;;;;;;26.50;18.63;;;6.50;99.90;;;;;;6215282;23;20000;-76
2023/01/17 14:30:36;;;;;;;38.33;26.25;;;6.50;99.90;;;;;;6215219;23;20000;-76
2023/01/17 14:33:04;;;;;;;18.95;14.73;;;6.60;99.90;;;;;;6214742;23;20000;-76
2023/01/17 14:35:35;;;;;;;20.55;16.08;;;6.50;99.90;;;;;;6215280;23;20027;-76
2023/01/17 14:38:04;;;;;;;18.90;14.73;;;6.50;99.90;;;;;;6215079;23;19996;-77
2023/01/17 14:40:37;;;;;;;15.23;12.25;;;6.60;99.90;;;;;;6215011;23;20015;-78
2023/01/17 14:43:09;;;;;;;17.80;13.57;;;6.50;99.90;;;;;;6188525;23;20087;-77
2023/01/17 14:45:36;;;;;;;18.80;12.27;;;6.50;99.90;;;;;;6215049;23;20019;-77